ADDS METAR Data INFO
IDs: Format: Raw Decoded Include TAF

Data at: 0405 UTC 11 Dec 2017

KAJG 110355Z AUTO 30003KT 10SM CLR M01/M05 A3012 RMK AO2 T10101050
KAJG 110335Z AUTO 28003KT 10SM CLR 00/M05 A3012 RMK AO2 T10021046
KAJG 110315Z AUTO 27004KT 10SM CLR 00/M05 A3012 RMK AO2 T10041046
KAJG 110255Z AUTO 26004KT 10SM CLR M01/M05 A3012 RMK AO2 T10121050
KAJG 110235Z AUTO 30007KT 10SM CLR 01/M04 A3011 RMK AO2 T00101041
KAJG 110215Z AUTO 29008KT 10SM CLR M01/M04 A3010 RMK AO2 T10081045
KAJG 110155Z AUTO 27008KT 10SM CLR M01/M05 A3010 RMK AO2 T10101048
KAJG 110135Z AUTO 26006KT 10SM CLR 00/M05 A3009 RMK AO2 T10021047
KAJG 110115Z AUTO 26005KT 10SM CLR 00/M04 A3009 RMK AO2 T00031045
KAJG 110055Z AUTO 25006KT 10SM CLR 01/M05 A3009 RMK AO2 T00061046
KAJG 110035Z AUTO 25006KT 10SM CLR 02/M05 A3007 RMK AO2 T00151046
KAJG 110015Z AUTO 28006KT 10SM CLR 01/M05 A3006 RMK AO2 T00091050
KAJG 102355Z AUTO 27006KT 10SM CLR 02/M05 A3006 RMK AO2 T00191048 10070 20016
KAJG 102335Z AUTO 26005KT 10SM CLR 02/M05 A3005 RMK AO2 T00201048
KAJG 102315Z AUTO 24007KT 10SM CLR 02/M05 A3004 RMK AO2 T00241047
KAJG 102255Z AUTO 25007KT 10SM CLR 03/M05 A3003 RMK AO2 T00281048
KAJG 102235Z AUTO 24008KT 10SM CLR 05/M04 A3002 RMK AO2 T00481045
KAJG 102215Z AUTO 25009KT 10SM CLR 06/M04 A3002 RMK AO2 T00601045
KAJG 102155Z AUTO 24011KT 10SM CLR 07/M05 A3000 RMK AO2 T00661046
KAJG 102135Z AUTO 25014KT 10SM CLR 07/M05 A2999 RMK AO2 T00691050
KAJG 102115Z AUTO 24012KT 10SM CLR 07/M05 A2999 RMK AO2 T00701048
KAJG 102055Z AUTO 23017G20KT 10SM CLR 07/M05 A2999 RMK AO2 T00671050
KAJG 102035Z AUTO 22017KT 10SM CLR 07/M05 A2998 RMK AO2 T00671050
KAJG 102015Z AUTO 22012KT 10SM CLR 06/M05 A2999 RMK AO2 T00611050
KAJG 101955Z AUTO 21015KT 10SM CLR 05/M05 A2998 RMK AO2 T00471054
KAJG 101935Z AUTO 21012KT 10SM CLR 04/M05 A2999 RMK AO2 T00431053
KAJG 101915Z AUTO 21015G22KT 10SM CLR 04/M06 A3001 RMK AO2 T00421057
KAJG 101855Z AUTO 21018G22KT 10SM CLR 04/M06 A3000 RMK AO2 T00401060
KAJG 101835Z AUTO 22017G23KT 10SM CLR 04/M06 A3001 RMK AO2 T00391059
KAJG 101815Z AUTO 20016G19KT 10SM CLR 03/M06 A3003 RMK AO2 T00341060
KAJG 101755Z AUTO 21017G20KT 10SM CLR 03/M06 A3004 RMK AO2 T00271061 10030 21054
KAJG 101735Z AUTO 21019G23KT 10SM CLR 03/M06 A3005 RMK AO2 T00261063
KAJG 101715Z AUTO 21015G21KT 10SM CLR 02/M06 A3007 RMK AO2 T00231063
KAJG 101655Z AUTO 20017KT 10SM CLR 02/M07 A3009 RMK AO2 T00171066
KAJG 101635Z AUTO 20015G19KT 10SM CLR 01/M06 A3009 RMK AO2 T00141065
KAJG 101615Z AUTO 22014G21KT 10SM CLR 01/M07 A3011 RMK AO2 T00051068
KAJG 101555Z AUTO 21014G24KT 10SM CLR 00/M07 A3013 RMK AO2 T00001069
KAJG 101535Z AUTO 22014G19KT 10SM SCT110 M01/M07 A3014 RMK AO2 T10101072
KAJG 101515Z AUTO 22013G18KT 10SM OVC120 M02/M07 A3014 RMK AO2 T10191071
KAJG 101455Z AUTO 22013KT 10SM OVC120 M02/M07 A3014 RMK AO2 T10201070
KAJG 101435Z AUTO 22012G16KT 10SM OVC120 M03/M07 A3015 RMK AO2 T10261075
KAJG 101415Z AUTO 21011KT 10SM OVC120 M03/M07 A3015 RMK AO2 T10331075
KAJG 101355Z AUTO 21008KT 10SM OVC120 M04/M08 A3017 RMK AO2 T10381076
KAJG 101335Z AUTO 21005KT 10SM OVC120 M04/M08 A3017 RMK AO2 T10411077
KAJG 101315Z AUTO 19005KT 10SM BKN120 M05/M08 A3016 RMK AO2 T10511081
KAJG 101255Z AUTO 22007KT 10SM SCT120 M05/M08 A3016 RMK AO2 T10511083
KAJG 101235Z AUTO 21008KT 10SM SCT120 M05/M08 A3016 RMK AO2 T10491081
KAJG 101215Z AUTO 22007KT 10SM SCT110 M05/M08 A3017 RMK AO2 T10481080
KAJG 101155Z AUTO 21005KT 10SM SCT110 M05/M08 A3017 RMK AO2 T10551083 11051 21067
KAJG 101135Z AUTO 22006KT 10SM CLR M06/M09 A3017 RMK AO2 T10641092
KAJG 101115Z AUTO 22006KT 10SM CLR M06/M09 A3017 RMK AO2 T10601090
KAJG 101055Z AUTO 24006KT 10SM CLR M05/M09 A3017 RMK AO2 T10531087
KAJG 101035Z AUTO 24005KT 10SM CLR M06/M09 A3017 RMK AO2 T10571088
KAJG 101015Z AUTO 24007KT 10SM CLR M06/M09 A3017 RMK AO2 T10641089
KAJG 100955Z AUTO 24005KT 10SM CLR M06/M09 A3018 RMK AO2 T10631091
KAJG 100935Z AUTO 24006KT 10SM CLR M06/M09 A3018 RMK AO2 T10601092
KAJG 100915Z AUTO 24006KT 10SM CLR M06/M09 A3018 RMK AO2 T10631091
KAJG 100855Z AUTO 25006KT 10SM CLR M06/M09 A3019 RMK AO2 T10631092
KAJG 100835Z AUTO 24007KT 10SM CLR M06/M09 A3019 RMK AO2 T10611091
KAJG 100815Z AUTO 25006KT 10SM CLR M07/M09 A3019 RMK AO2 T10661093
KAJG 100755Z AUTO 25007KT 10SM CLR M06/M09 A3019 RMK AO2 T10641091
KAJG 100735Z AUTO 26006KT 10SM CLR M06/M09 A3018 RMK AO2 T10651095
KAJG 100715Z AUTO 27006KT 10SM CLR M06/M09 A3018 RMK AO2 T10621093
KAJG 100655Z AUTO 27007KT 10SM CLR M06/M09 A3018 RMK AO2 T10611092
KAJG 100635Z AUTO 25006KT 10SM CLR M06/M09 A3018 RMK AO2 T10591092
KAJG 100615Z AUTO 25007KT 10SM CLR M06/M09 A3018 RMK AO2 T10571093
KAJG 100555Z AUTO 25005KT 10SM CLR M05/M09 A3019 RMK AO2 T10551095 11005 21062 400241062
KAJG 100535Z AUTO 24005KT 10SM CLR M05/M09 A3019 RMK AO2 T10471093
KAJG 100515Z AUTO 24005KT 10SM CLR M06/M09 A3019 RMK AO2 T10601095
KAJG 100455Z AUTO 25004KT 10SM CLR M05/M09 A3019 RMK AO2 T10551093
KAJG 100440Z AUTO 25004KT 10SM CLR M06/M10 A3019 RMK AO2 T10601097
KAJG 100415Z AUTO 30003KT 10SM CLR M04/M09 A3018 RMK AO2 T10451095
KAJG 100355Z AUTO 31004KT 10SM CLR M04/M09 A3018 RMK AO2 T10391092
KAJG 100335Z AUTO 29006KT 10SM CLR M03/M09 A3018 RMK AO2 T10331090
KAJG 100315Z AUTO 30007KT 10SM SCT044 M03/M09 A3018 RMK AO2 T10291090
KAJG 100255Z AUTO 30008KT 10SM BKN044 M02/M09 A3018 RMK AO2 T10231090
KAJG 100235Z AUTO 30009KT 10SM BKN044 M02/M09 A3017 RMK AO2 T10201090
KAJG 100215Z AUTO 31010KT 10SM CLR M02/M09 A3016 RMK AO2 T10161091
KAJG 100155Z AUTO 31011KT 10SM CLR M01/M09 A3015 RMK AO2 T10151091
KAJG 100135Z AUTO 31013G17KT 10SM CLR M01/M09 A3014 RMK AO2 T10121092
KAJG 100115Z AUTO 31011KT 10SM CLR M01/M09 A3014 RMK AO2 T10121090
KAJG 100055Z AUTO 30013KT 10SM SCT046 M01/M09 A3013 RMK AO2 T10091090
KAJG 100035Z AUTO 29013KT 10SM SCT048 M01/M09 A3012 RMK AO2 T10101087
KAJG 100015Z AUTO 31011KT 10SM SCT048 M01/M09 A3010 RMK AO2 T10071087
KAJG 092355Z AUTO 31011G16KT 10SM BKN048 00/M08 A3009 RMK AO2 T10031085 10024 21006
KAJG 092335Z AUTO 31008KT 10SM OVC048 00/M08 A3009 RMK AO2 T10051076
KAJG 092315Z AUTO 32011G15KT 10SM SCT040 BKN050 00/M08 A3007 RMK AO2 T00001080
KAJG 092255Z AUTO 31012G20KT 10SM SCT038 OVC050 00/M08 A3006 RMK AO2 T00021077
KAJG 092235Z AUTO 31014G24KT 10SM OVC050 00/M08 A3005 RMK AO2 T00011077
KAJG 092215Z AUTO 31013G21KT 10SM OVC050 01/M08 A3003 RMK AO2 T00051084
KAJG 092155Z AUTO 32015G21KT 10SM OVC050 01/M08 A3001 RMK AO2 T00071081
KAJG 092135Z AUTO 31017G22KT 10SM SCT040 OVC050 01/M08 A3000 RMK AO2 T00071080
KAJG 092115Z AUTO 32019G24KT 10SM SCT041 OVC050 01/M07 A2998 RMK AO2 T00101073
KAJG 092055Z AUTO 32021G27KT 10SM SCT036 SCT043 OVC050 01/M07 A2996 RMK AO2 T00131071
KAJG 092035Z AUTO 31016G23KT 10SM SCT038 BKN046 OVC050 01/M06 A2995 RMK AO2 T00101061
KAJG 092015Z AUTO 31015G22KT 10SM SCT039 SCT049 OVC055 01/M07 A2993 RMK AO2 T00121070
KAJG 091955Z AUTO 30016G23KT 10SM SCT034 SCT040 OVC060 02/M06 A2991 RMK AO2 T00171063
KAJG 091935Z AUTO 30017G24KT 10SM SCT034 SCT042 OVC060 02/M05 A2990 RMK AO2 T00161052
KAJG 091915Z AUTO 32015G25KT 10SM SCT033 BKN041 OVC050 01/M06 A2989 RMK AO2 T00131060
KAJG 091855Z AUTO 30021G25KT 10SM SCT039 SCT047 OVC060 02/M06 A2988 RMK AO2 T00181064
KAJG 091835Z AUTO 30016G23KT 10SM SCT034 SCT043 OVC050 02/M06 A2988 RMK AO2 T00171057
KAJG 091815Z AUTO 31016G22KT 10SM SCT030 BKN035 OVC055 02/M05 A2987 RMK AO2 T00241050
KAJG 091755Z AUTO 31014G20KT 10SM BKN026 OVC033 01/M05 A2987 RMK AO2 T00121046 10012 21021
KAJG 091735Z AUTO 30012KT 10SM BKN024 BKN029 OVC050 01/M04 A2987 RMK AO2 T00101042
KAJG 091715Z AUTO 30015KT 10SM BKN024 OVC050 01/M04 A2986 RMK AO2 T00101041
KAJG 091655Z AUTO 30013KT 10SM OVC022 01/M04 A2986 RMK AO2 T00071042
KAJG 091635Z AUTO 29013KT 10SM OVC022 00/M04 A2986 RMK AO2 T00041041
KAJG 091615Z AUTO 28011KT 10SM OVC024 00/M05 A2986 RMK AO2 T00001049